createdAt,value
2023-01-19T00:00:18.338Z,95300.34
2023-01-19T00:03:17.959Z,95292.69
2023-01-19T00:06:14.819Z,95300.91
2023-01-19T00:09:11.600Z,95308.75
2023-01-19T00:12:09.159Z,95304.81
2023-01-19T00:15:06.506Z,95315.41
2023-01-19T00:18:03.404Z,95319.50
2023-01-19T00:21:00.212Z,95322.25
2023-01-19T00:23:57.029Z,95315.81
2023-01-19T00:26:53.838Z,95314.75
2023-01-19T00:29:50.575Z,95311.66
2023-01-19T00:32:47.328Z,95303.28
2023-01-19T00:35:44.328Z,95318.66
2023-01-19T00:38:41.058Z,95313.91
2023-01-19T00:41:56.396Z,95309.81
2023-01-19T00:44:53.137Z,95311.88
2023-01-19T00:47:56.993Z,95310.78
2023-01-19T00:50:53.799Z,95324.84
2023-01-19T00:53:50.645Z,95320.81
2023-01-19T00:56:47.392Z,95321.75
2023-01-19T00:59:44.168Z,95324.84
2023-01-19T01:02:42.272Z,95329.25
2023-01-19T01:05:41.325Z,95331.91
2023-01-19T01:08:38.179Z,95332.47
2023-01-19T01:11:34.925Z,95334.22
2023-01-19T01:14:31.666Z,95336.94
2023-01-19T01:17:28.426Z,95327.38
2023-01-19T01:20:28.033Z,95330.63
2023-01-19T01:23:24.958Z,95332.72
2023-01-19T01:26:21.879Z,95341.34
2023-01-19T01:29:18.642Z,95333.72
2023-01-19T01:32:15.818Z,95334.22
2023-01-19T01:35:13.503Z,95343.13
2023-01-19T01:38:10.333Z,95338.56
2023-01-19T01:41:07.853Z,95333.53
2023-01-19T01:44:49.472Z,95336.16
2023-01-19T01:47:48.603Z,95333.34
2023-01-19T01:51:11.028Z,95340.84
2023-01-19T01:54:17.245Z,95337.75
2023-01-19T01:57:14.271Z,95338.09
2023-01-19T02:00:11.322Z,95349.47
2023-01-19T02:03:08.091Z,95345.25
2023-01-19T02:06:07.181Z,95340.50
2023-01-19T02:09:27.244Z,95346.88
2023-01-19T02:12:42.601Z,95358.19
2023-01-19T02:15:39.344Z,95355.72
2023-01-19T02:18:36.497Z,95353.91
2023-01-19T02:21:45.165Z,95356.75
2023-01-19T02:24:42.750Z,95355.00
2023-01-19T02:27:39.573Z,95357.94
2023-01-19T02:30:37.221Z,95356.13
2023-01-19T02:33:34.054Z,95355.28
2023-01-19T02:36:42.212Z,95357.44
2023-01-19T02:40:04.464Z,95357.03
2023-01-19T02:43:03.345Z,95362.47
2023-01-19T02:46:00.352Z,95357.97
2023-01-19T02:49:00.524Z,95364.06
2023-01-19T02:51:58.561Z,95367.94
2023-01-19T02:55:19.840Z,95354.44
2023-01-19T02:58:26.950Z,95354.31
2023-01-19T03:01:34.298Z,95346.53
2023-01-19T03:04:44.974Z,95347.25
2023-01-19T03:08:06.435Z,95352.78
2023-01-19T03:11:09.278Z,95355.75
2023-01-19T03:14:10.997Z,95355.19
2023-01-19T03:17:09.658Z,95352.06
2023-01-19T03:20:07.834Z,95346.47
2023-01-19T03:23:08.235Z,95353.47
2023-01-19T03:26:08.451Z,95348.38
2023-01-19T03:29:06.903Z,95343.78
2023-01-19T03:32:07.352Z,95357.53
2023-01-19T03:35:09.370Z,95347.91
2023-01-19T03:38:11.944Z,95366.97
2023-01-19T03:41:13.224Z,95363.72
2023-01-19T03:44:11.663Z,95358.88
2023-01-19T03:47:09.848Z,95355.41
2023-01-19T03:50:09.142Z,95355.84
2023-01-19T03:53:14.469Z,95350.09
2023-01-19T03:56:22.728Z,95354.38
2023-01-19T03:59:20.051Z,95356.78
2023-01-19T04:02:16.977Z,95359.66
2023-01-19T04:05:14.470Z,95352.59
2023-01-19T04:08:11.948Z,95350.13
2023-01-19T04:11:08.844Z,95353.28
2023-01-19T04:14:05.616Z,95351.50
2023-01-19T04:17:02.386Z,95346.06
2023-01-19T04:20:00.331Z,95355.97
2023-01-19T04:23:01.653Z,95362.56
2023-01-19T04:25:59.622Z,95367.88
2023-01-19T04:28:56.502Z,95362.38
2023-01-19T04:31:53.342Z,95361.75
2023-01-19T04:34:50.458Z,95363.78
2023-01-19T04:37:47.347Z,95358.25
2023-01-19T04:40:44.146Z,95364.34
2023-01-19T04:43:40.942Z,95356.44
2023-01-19T04:46:37.796Z,95355.09
2023-01-19T04:49:37.599Z,95347.72
2023-01-19T04:52:35.193Z,95349.88
2023-01-19T04:55:31.951Z,95353.59
2023-01-19T04:58:28.717Z,95350.41
2023-01-19T05:01:25.636Z,95355.03
2023-01-19T05:04:22.462Z,95360.91
2023-01-19T05:07:19.266Z,95357.00
2023-01-19T05:10:16.293Z,95358.13
2023-01-19T05:13:14.088Z,95357.34
2023-01-19T05:16:11.120Z,95362.25
2023-01-19T05:19:08.008Z,95363.03
2023-01-19T05:22:05.630Z,95362.56
2023-01-19T05:25:02.386Z,95365.78
2023-01-19T05:27:59.154Z,95370.25
2023-01-19T05:30:56.007Z,95358.91
2023-01-19T05:33:52.860Z,95365.78
2023-01-19T05:36:49.731Z,95375.06
2023-01-19T05:39:46.483Z,95363.75
2023-01-19T05:42:43.255Z,95364.94
2023-01-19T05:45:41.073Z,95362.66
2023-01-19T05:48:38.400Z,95360.47
2023-01-19T05:51:38.414Z,95364.94
2023-01-19T05:54:35.168Z,95357.59
2023-01-19T05:57:31.937Z,95357.38
2023-01-19T06:00:29.123Z,95373.94
2023-01-19T06:03:26.009Z,95361.03
2023-01-19T06:06:22.845Z,95373.84
2023-01-19T06:09:19.601Z,95381.22
2023-01-19T06:12:16.377Z,95369.75
2023-01-19T06:15:14.440Z,95371.78
2023-01-19T06:18:12.592Z,95375.63
2023-01-19T06:21:12.309Z,95373.31
2023-01-19T06:24:09.971Z,95377.88
2023-01-19T06:27:06.890Z,95379.88
2023-01-19T06:30:04.601Z,95378.59
2023-01-19T06:33:01.764Z,95377.19
2023-01-19T06:35:58.815Z,95382.19
2023-01-19T06:38:55.573Z,95386.00
2023-01-19T06:41:52.345Z,95393.97
2023-01-19T06:44:49.284Z,95393.88
2023-01-19T06:47:47.828Z,95410.13
2023-01-19T06:50:45.679Z,95406.41
2023-01-19T06:53:42.446Z,95408.88
2023-01-19T06:56:39.222Z,95410.75
2023-01-19T06:59:36.026Z,95410.69
2023-01-19T07:02:32.919Z,95415.38
2023-01-19T07:05:29.836Z,95414.09
2023-01-19T07:08:27.020Z,95411.72
2023-01-19T07:11:31.466Z,95419.16
2023-01-19T07:14:33.504Z,95418.38
2023-01-19T07:17:30.389Z,95420.81
2023-01-19T07:20:27.149Z,95435.53
2023-01-19T07:23:24.063Z,95429.28
2023-01-19T07:26:21.751Z,95428.25
2023-01-19T07:29:18.739Z,95433.97
2023-01-19T07:32:15.495Z,95441.66
2023-01-19T07:35:12.287Z,95444.28
2023-01-19T07:38:09.198Z,95442.75
2023-01-19T07:41:07.732Z,95447.91
2023-01-19T07:44:04.682Z,95446.91
2023-01-19T07:47:01.442Z,95441.09
2023-01-19T07:49:58.230Z,95450.44
2023-01-19T07:52:55.934Z,95447.03
2023-01-19T07:55:56.699Z,95454.56
2023-01-19T07:58:53.625Z,95449.41
2023-01-19T08:01:50.511Z,95450.34
2023-01-19T08:04:48.185Z,95459.88
2023-01-19T08:07:46.254Z,95452.81
2023-01-19T08:10:43.035Z,95462.34
2023-01-19T08:13:39.801Z,95477.78
2023-01-19T08:16:36.988Z,95465.31
2023-01-19T08:19:33.760Z,95478.72
2023-01-19T08:22:30.556Z,95480.47
2023-01-19T08:25:33.082Z,95479.50
2023-01-19T08:28:32.133Z,95477.94
2023-01-19T08:31:29.245Z,95480.75
2023-01-19T08:34:26.137Z,95484.34
2023-01-19T08:37:22.885Z,95493.94
2023-01-19T08:40:20.240Z,95489.19
2023-01-19T08:43:17.588Z,95488.47
2023-01-19T08:46:18.530Z,95495.59
2023-01-19T08:49:15.833Z,95492.25
2023-01-19T08:52:12.619Z,95480.59
2023-01-19T08:55:11.206Z,95478.78
2023-01-19T08:58:11.060Z,95488.34
2023-01-19T09:01:08.883Z,95480.28
2023-01-19T09:04:06.196Z,95485.81
2023-01-19T09:07:03.065Z,95486.16
2023-01-19T09:09:59.853Z,95483.44
2023-01-19T09:12:57.165Z,95488.59
2023-01-19T09:15:54.286Z,95488.50
2023-01-19T09:18:51.100Z,95496.81
2023-01-19T09:21:47.845Z,95494.69
2023-01-19T09:24:44.636Z,95496.81
2023-01-19T09:27:41.401Z,95494.91
2023-01-19T09:30:39.811Z,95494.00
2023-01-19T09:33:36.577Z,95503.00
2023-01-19T09:36:33.328Z,95499.47
2023-01-19T09:39:30.073Z,95497.25
2023-01-19T09:42:46.201Z,95493.63
2023-01-19T09:45:48.629Z,95491.00
2023-01-19T09:48:52.973Z,95495.88
2023-01-19T09:51:50.934Z,95498.31
2023-01-19T09:54:53.581Z,95496.19
2023-01-19T09:57:50.342Z,95504.03
2023-01-19T10:00:52.728Z,95500.38
2023-01-19T10:03:53.541Z,95490.41
2023-01-19T10:06:52.492Z,95496.97
2023-01-19T10:10:04.566Z,95487.28
2023-01-19T10:13:11.556Z,95499.47
2023-01-19T10:16:34.822Z,95495.56
2023-01-19T10:19:40.363Z,95493.06
2023-01-19T10:22:37.550Z,95486.25
2023-01-19T10:25:34.456Z,95497.16
2023-01-19T10:28:31.873Z,95484.31
2023-01-19T10:31:28.889Z,95488.09
2023-01-19T10:34:25.793Z,95477.09
2023-01-19T10:37:37.757Z,95473.28
2023-01-19T10:40:39.847Z,95477.63
2023-01-19T10:43:45.050Z,95481.34
2023-01-19T10:46:47.182Z,95481.38
2023-01-19T10:49:44.908Z,95482.84
2023-01-19T10:52:44.705Z,95475.75
2023-01-19T10:55:41.581Z,95474.78
2023-01-19T10:58:40.336Z,95476.38
2023-01-19T11:01:38.084Z,95472.91
2023-01-19T11:04:35.004Z,95482.69
2023-01-19T11:07:33.605Z,95484.28
2023-01-19T11:10:30.440Z,95481.47
2023-01-19T11:13:27.218Z,95478.06
2023-01-19T11:16:31.214Z,95481.44
2023-01-19T11:19:31.136Z,95476.66
2023-01-19T11:22:34.328Z,95475.59
2023-01-19T11:25:33.394Z,95488.34
2023-01-19T11:28:42.016Z,95479.41
2023-01-19T11:31:40.427Z,95481.31
2023-01-19T11:34:38.690Z,95486.78
2023-01-19T11:37:35.815Z,95482.16
2023-01-19T11:40:33.745Z,95481.72
2023-01-19T11:43:43.492Z,95475.63
2023-01-19T11:46:48.560Z,95477.69
2023-01-19T11:50:04.918Z,95484.19
2023-01-19T11:53:15.091Z,95468.75
2023-01-19T11:56:14.043Z,95470.34
2023-01-19T11:59:12.456Z,95476.03
2023-01-19T12:02:28.367Z,95475.84
2023-01-19T12:05:27.177Z,95470.78
2023-01-19T12:08:50.053Z,95473.88
2023-01-19T12:12:01.615Z,95472.31
2023-01-19T12:15:06.330Z,95470.84
2023-01-19T12:18:05.833Z,95470.78
2023-01-19T12:21:04.211Z,95471.38
2023-01-19T12:24:16.408Z,95477.91
2023-01-19T12:27:39.718Z,95485.03
2023-01-19T12:30:36.583Z,95479.84
2023-01-19T12:33:36.811Z,95476.41
2023-01-19T12:36:36.811Z,95471.38
2023-01-19T12:39:35.384Z,95477.81
2023-01-19T12:42:33.503Z,95485.56
2023-01-19T12:45:34.057Z,95484.81
2023-01-19T12:48:32.132Z,95484.50
2023-01-19T12:51:30.946Z,95490.78
2023-01-19T12:54:34.250Z,95478.88
2023-01-19T12:57:48.550Z,95483.78
2023-01-19T13:00:46.932Z,95483.72
2023-01-19T13:03:46.009Z,95475.03
2023-01-19T13:06:48.663Z,95478.00
2023-01-19T13:09:45.505Z,95468.28
2023-01-19T13:13:18.204Z,95475.72
2023-01-19T13:16:18.136Z,95475.72
2023-01-19T13:19:18.195Z,95476.50
2023-01-19T13:22:54.077Z,95472.84
2023-01-19T13:26:12.721Z,95474.22
2023-01-19T13:29:28.323Z,95476.03
2023-01-19T13:32:25.688Z,95472.16
2023-01-19T13:35:22.647Z,95470.53
2023-01-19T13:38:19.845Z,95474.53
2023-01-19T13:41:18.753Z,95472.44
2023-01-19T13:44:32.689Z,95466.13
2023-01-19T13:47:48.980Z,95468.78
2023-01-19T13:51:17.702Z,95471.91
2023-01-19T13:54:15.971Z,95466.16
2023-01-19T13:57:31.555Z,95466.72
2023-01-19T14:00:30.946Z,95464.25
2023-01-19T14:03:27.889Z,95458.53
2023-01-19T14:06:36.383Z,95464.31
2023-01-19T14:09:33.204Z,95463.25
2023-01-19T14:12:30.104Z,95467.03
2023-01-19T14:15:28.552Z,95469.28
2023-01-19T14:18:30.738Z,95459.78
2023-01-19T14:21:38.130Z,95468.72
2023-01-19T14:24:34.908Z,95470.84
2023-01-19T14:27:31.677Z,95475.50
2023-01-19T14:30:28.542Z,95479.22
2023-01-19T14:33:34.717Z,95484.91
2023-01-19T14:36:38.098Z,95483.91
2023-01-19T14:39:35.820Z,95496.78
2023-01-19T14:42:35.808Z,95484.75
2023-01-19T14:45:36.976Z,95487.13
2023-01-19T14:48:33.785Z,95486.16
2023-01-19T14:51:31.160Z,95496.84
2023-01-19T14:54:38.327Z,95490.88
2023-01-19T14:57:36.445Z,95487.44
2023-01-19T15:00:33.216Z,95491.41
2023-01-19T15:03:43.522Z,95496.06
2023-01-19T15:06:45.805Z,95497.41
2023-01-19T15:09:42.562Z,95502.16
2023-01-19T15:12:39.329Z,95510.03
2023-01-19T15:15:36.563Z,95509.25
2023-01-19T15:18:33.324Z,95508.72
2023-01-19T15:21:30.104Z,95507.69
2023-01-19T15:24:26.851Z,95506.31
2023-01-19T15:27:23.629Z,95507.41
2023-01-19T15:30:25.182Z,95517.69
2023-01-19T15:33:23.737Z,95522.91
2023-01-19T15:36:22.230Z,95521.38
2023-01-19T15:39:19.479Z,95524.53
2023-01-19T15:42:16.348Z,95520.84
2023-01-19T15:45:33.541Z,95525.81
2023-01-19T15:48:30.387Z,95531.53
2023-01-19T15:51:27.222Z,95530.75
2023-01-19T15:54:24.079Z,95528.44
2023-01-19T15:57:20.974Z,95521.91
2023-01-19T16:00:17.846Z,95528.69
2023-01-19T16:03:14.655Z,95520.59
2023-01-19T16:06:12.803Z,95520.81
2023-01-19T16:09:09.564Z,95536.03
2023-01-19T16:12:06.443Z,95530.25
2023-01-19T16:15:03.270Z,95537.06
2023-01-19T16:18:00.106Z,95542.28
2023-01-19T16:20:56.954Z,95549.41
2023-01-19T16:23:54.101Z,95548.56
2023-01-19T16:26:50.991Z,95548.09
2023-01-19T16:29:47.968Z,95556.50
2023-01-19T16:32:45.328Z,95554.13
2023-01-19T16:35:42.111Z,95558.59
2023-01-19T16:38:38.895Z,95563.38
2023-01-19T16:41:36.229Z,95563.13
2023-01-19T16:44:33.164Z,95568.84
2023-01-19T16:47:30.137Z,95574.34
2023-01-19T16:50:26.913Z,95575.22
2023-01-19T16:53:23.721Z,95581.00
2023-01-19T16:56:20.518Z,95574.19
2023-01-19T16:59:17.659Z,95575.47
2023-01-19T17:02:14.712Z,95578.41
2023-01-19T17:05:11.700Z,95580.94
2023-01-19T17:08:08.657Z,95578.38
2023-01-19T17:11:23.425Z,95583.16
2023-01-19T17:14:20.528Z,95579.94
2023-01-19T17:17:17.504Z,95583.09
2023-01-19T17:20:14.701Z,95584.41
2023-01-19T17:23:11.624Z,95584.69
2023-01-19T17:26:08.859Z,95587.88
2023-01-19T17:29:10.167Z,95588.59
2023-01-19T17:32:06.996Z,95596.53
2023-01-19T17:35:03.901Z,95600.75
2023-01-19T17:38:00.714Z,95595.25
2023-01-19T17:40:57.456Z,95598.06
2023-01-19T17:43:54.535Z,95594.66
2023-01-19T17:46:51.301Z,95596.03
2023-01-19T17:49:48.054Z,95590.31
2023-01-19T17:52:44.934Z,95594.00
2023-01-19T17:55:41.697Z,95594.97
2023-01-19T17:58:39.537Z,95603.66
2023-01-19T18:01:39.829Z,95608.66
2023-01-19T18:04:40.045Z,95613.38
2023-01-19T18:07:36.824Z,95602.59
2023-01-19T18:10:33.698Z,95602.31
2023-01-19T18:13:30.461Z,95610.41
2023-01-19T18:16:30.498Z,95602.53
2023-01-19T18:19:27.305Z,95605.22
2023-01-19T18:22:24.086Z,95604.09
2023-01-19T18:25:20.838Z,95598.38
2023-01-19T18:28:17.866Z,95601.28
2023-01-19T18:31:17.079Z,95604.69
2023-01-19T18:34:13.902Z,95600.75
2023-01-19T18:37:10.746Z,95604.44
2023-01-19T18:40:09.968Z,95607.06
2023-01-19T18:43:08.809Z,95602.06
2023-01-19T18:46:08.247Z,95604.50
2023-01-19T18:49:05.400Z,95601.34
2023-01-19T18:52:03.937Z,95609.44
2023-01-19T18:55:01.168Z,95614.47
2023-01-19T18:57:58.775Z,95613.91
2023-01-19T19:00:56.237Z,95607.84
2023-01-19T19:03:55.000Z,95614.78
2023-01-19T19:06:51.807Z,95609.22
2023-01-19T19:09:48.771Z,95616.84
2023-01-19T19:12:45.636Z,95616.63
2023-01-19T19:15:44.365Z,95617.66
2023-01-19T19:18:41.261Z,95620.78
2023-01-19T19:21:38.327Z,95615.03
2023-01-19T19:24:37.988Z,95623.38
2023-01-19T19:27:35.620Z,95623.91
2023-01-19T19:30:34.560Z,95625.53
2023-01-19T19:33:31.491Z,95625.50
2023-01-19T19:36:28.824Z,95634.44
2023-01-19T19:39:26.187Z,95635.25
2023-01-19T19:42:24.028Z,95637.38
2023-01-19T19:45:20.906Z,95637.66
2023-01-19T19:48:17.804Z,95647.91
2023-01-19T19:51:19.243Z,95651.31
2023-01-19T19:54:16.218Z,95642.13
2023-01-19T19:57:12.977Z,95646.34
2023-01-19T20:00:10.367Z,95652.19
2023-01-19T20:03:13.364Z,95655.31
2023-01-19T20:06:13.547Z,95652.91
2023-01-19T20:09:12.887Z,95649.75
2023-01-19T20:12:10.129Z,95659.72
2023-01-19T20:15:07.231Z,95661.03
2023-01-19T20:18:07.098Z,95668.59
2023-01-19T20:21:13.985Z,95663.41
2023-01-19T20:24:17.619Z,95673.13
2023-01-19T20:27:14.422Z,95673.38
2023-01-19T20:30:12.075Z,95690.19
2023-01-19T20:33:09.026Z,95673.84
2023-01-19T20:36:06.258Z,95683.56
2023-01-19T20:39:10.200Z,95689.13
2023-01-19T20:42:11.171Z,95683.38
2023-01-19T20:45:08.344Z,95680.47
2023-01-19T20:48:05.212Z,95683.31
2023-01-19T20:51:12.718Z,95682.53
2023-01-19T20:54:11.214Z,95681.63
2023-01-19T20:57:07.981Z,95684.22
2023-01-19T21:00:05.298Z,95683.88
2023-01-19T21:03:02.108Z,95676.34
2023-01-19T21:05:59.685Z,95689.94
2023-01-19T21:08:57.500Z,95687.63
2023-01-19T21:11:55.924Z,95687.31
2023-01-19T21:14:54.052Z,95690.25
2023-01-19T21:17:50.851Z,95695.47
2023-01-19T21:20:48.411Z,95700.97
2023-01-19T21:23:46.761Z,95697.56
2023-01-19T21:26:43.620Z,95704.97
2023-01-19T21:29:40.926Z,95701.00
2023-01-19T21:32:37.695Z,95711.56
2023-01-19T21:35:34.490Z,95717.34
2023-01-19T21:38:31.603Z,95709.31
2023-01-19T21:41:29.982Z,95711.28
2023-01-19T21:44:26.854Z,95717.19
2023-01-19T21:47:23.626Z,95716.72
2023-01-19T21:50:20.372Z,95728.28
2023-01-19T21:53:17.141Z,95723.56
2023-01-19T21:56:13.909Z,95723.28
2023-01-19T21:59:17.032Z,95729.00
2023-01-19T22:02:14.578Z,95730.13
2023-01-19T22:05:11.577Z,95730.66
2023-01-19T22:08:08.846Z,95735.41
2023-01-19T22:11:07.301Z,95732.38
2023-01-19T22:14:04.068Z,95741.16
2023-01-19T22:17:00.909Z,95746.41
2023-01-19T22:19:57.679Z,95751.66
2023-01-19T22:22:55.417Z,95750.09
2023-01-19T22:25:52.152Z,95754.66
2023-01-19T22:28:52.366Z,95753.06
2023-01-19T22:31:51.291Z,95749.38
2023-01-19T22:34:48.957Z,95749.75
2023-01-19T22:37:45.722Z,95761.22
2023-01-19T22:40:42.468Z,95758.13
2023-01-19T22:43:39.217Z,95760.16
2023-01-19T22:46:36.898Z,95759.00
2023-01-19T22:49:33.649Z,95756.41
2023-01-19T22:52:30.422Z,95757.72
2023-01-19T22:55:29.613Z,95753.25
2023-01-19T22:58:26.419Z,95757.47
2023-01-19T23:01:44.402Z,95758.00
2023-01-19T23:04:41.294Z,95761.66
2023-01-19T23:07:38.041Z,95761.28
2023-01-19T23:10:38.900Z,95766.38
2023-01-19T23:13:35.797Z,95763.72
2023-01-19T23:16:32.906Z,95763.75
2023-01-19T23:19:29.667Z,95769.66
2023-01-19T23:22:26.437Z,95770.78
2023-01-19T23:25:23.189Z,95768.66
2023-01-19T23:28:19.945Z,95765.66
2023-01-19T23:31:17.721Z,95767.25
2023-01-19T23:34:14.829Z,95765.34
2023-01-19T23:37:11.605Z,95778.47
2023-01-19T23:40:10.253Z,95782.16
2023-01-19T23:43:07.038Z,95778.47
2023-01-19T23:46:04.909Z,95779.03
2023-01-19T23:49:01.685Z,95784.00
2023-01-19T23:51:58.488Z,95777.44
2023-01-19T23:54:55.257Z,95780.28
2023-01-19T23:57:52.021Z,95785.75
